createdAt,value
2017-02-28T00:00:07.288Z,0
2017-02-28T00:01:24.351Z,0
2017-02-28T00:02:44.214Z,0
2017-02-28T00:04:03.516Z,0
2017-02-28T00:05:24.793Z,0
2017-02-28T00:06:45.274Z,0
2017-02-28T00:08:06.274Z,0
2017-02-28T00:09:26.015Z,0
2017-02-28T00:10:49.895Z,0
2017-02-28T00:12:12.854Z,0
2017-02-28T00:13:35.907Z,0
2017-02-28T00:14:56.272Z,0
2017-02-28T00:16:17.659Z,0
2017-02-28T00:17:38.197Z,0
2017-02-28T00:18:58.011Z,0
2017-02-28T00:20:20.477Z,0
2017-02-28T00:21:43.299Z,0
2017-02-28T00:23:07.813Z,0
2017-02-28T00:24:31.397Z,0
2017-02-28T00:25:52.181Z,0
2017-02-28T00:27:14.698Z,0
2017-02-28T00:28:33.855Z,0
2017-02-28T00:29:55.986Z,0
2017-02-28T00:31:15.656Z,0
2017-02-28T00:32:35.437Z,0
2017-02-28T00:34:02.179Z,0
2017-02-28T00:35:23.760Z,0
2017-02-28T00:36:44.150Z,0
2017-02-28T00:38:04.434Z,0
2017-02-28T00:39:22.240Z,0
2017-02-28T00:40:54.659Z,0
2017-02-28T00:42:17.104Z,0
2017-02-28T00:43:38.126Z,0
2017-02-28T00:44:57.096Z,0
2017-02-28T00:46:16.909Z,0
2017-02-28T00:47:35.468Z,0
2017-02-28T00:48:57.360Z,0
2017-02-28T00:50:17.747Z,0
2017-02-28T00:51:37.913Z,0
2017-02-28T00:52:59.432Z,0
2017-02-28T00:54:17.387Z,0
2017-02-28T00:55:41.398Z,0
2017-02-28T00:57:03.218Z,0
2017-02-28T00:58:27.535Z,0
2017-02-28T00:59:47.785Z,0
2017-02-28T01:01:09.278Z,0
2017-02-28T01:02:32.296Z,0
2017-02-28T01:03:55.996Z,0
2017-02-28T01:05:14.805Z,0
2017-02-28T01:06:34.044Z,0
2017-02-28T01:07:53.434Z,0
2017-02-28T01:09:11.445Z,0
2017-02-28T01:10:32.008Z,0
2017-02-28T01:11:47.571Z,0
2017-02-28T01:13:05.358Z,0
2017-02-28T01:14:24.419Z,0
2017-02-28T01:15:48.290Z,0
2017-02-28T01:17:07.678Z,0
2017-02-28T01:18:28.743Z,0
2017-02-28T01:19:50.303Z,0
2017-02-28T01:21:09.253Z,0
2017-02-28T01:22:28.963Z,0
2017-02-28T01:23:47.987Z,0
2017-02-28T01:25:05.049Z,0
2017-02-28T01:26:25.504Z,0
2017-02-28T01:27:44.194Z,0
2017-02-28T01:29:03.939Z,0
2017-02-28T01:30:26.431Z,0
2017-02-28T01:31:49.368Z,0
2017-02-28T01:33:08.474Z,0
2017-02-28T01:34:29.972Z,0
2017-02-28T01:35:48.969Z,0
2017-02-28T01:37:05.457Z,0
2017-02-28T01:38:25.525Z,0
2017-02-28T01:39:45.272Z,0
2017-02-28T01:41:02.950Z,0
2017-02-28T01:42:24.208Z,0
2017-02-28T01:43:49.622Z,0
2017-02-28T01:45:12.260Z,0
2017-02-28T01:46:35.768Z,0
2017-02-28T01:47:53.712Z,0
2017-02-28T01:49:11.675Z,0
2017-02-28T01:50:30.184Z,0
2017-02-28T01:51:49.383Z,0
2017-02-28T01:53:08.322Z,0
2017-02-28T01:54:28.957Z,0
2017-02-28T01:55:47.868Z,0
2017-02-28T01:57:07.355Z,0
2017-02-28T01:58:28.063Z,0
2017-02-28T01:59:48.692Z,0
2017-02-28T02:01:09.341Z,0
2017-02-28T02:02:32.191Z,0
2017-02-28T02:03:49.663Z,0
2017-02-28T02:05:11.363Z,0
2017-02-28T02:06:31.624Z,0
2017-02-28T02:07:52.514Z,0
2017-02-28T02:09:13.617Z,0
2017-02-28T02:10:37.353Z,0
2017-02-28T02:11:59.048Z,0
2017-02-28T02:13:19.002Z,0
2017-02-28T02:14:37.345Z,0
2017-02-28T02:15:55.809Z,0
2017-02-28T02:17:17.656Z,0
2017-02-28T02:18:40.059Z,0
2017-02-28T02:20:00.551Z,0
2017-02-28T02:21:20.410Z,0
2017-02-28T02:22:41.706Z,0
2017-02-28T02:24:00.475Z,0
2017-02-28T02:25:19.081Z,0
2017-02-28T02:26:37.119Z,0
2017-02-28T02:27:59.258Z,0
2017-02-28T02:29:21.388Z,0
2017-02-28T02:30:44.028Z,0
2017-02-28T02:32:01.825Z,0
2017-02-28T02:33:24.177Z,0
2017-02-28T02:34:46.995Z,0
2017-02-28T02:36:06.873Z,0
2017-02-28T02:37:24.864Z,0
2017-02-28T02:38:45.374Z,0
2017-02-28T02:40:07.314Z,0
2017-02-28T02:41:30.376Z,0
2017-02-28T02:42:50.444Z,0
2017-02-28T02:44:10.648Z,0
2017-02-28T02:45:33.204Z,0
2017-02-28T02:46:50.694Z,0
2017-02-28T02:48:10.758Z,0
2017-02-28T02:49:33.553Z,0
2017-02-28T02:50:53.304Z,0
2017-02-28T02:52:13.768Z,0
2017-02-28T02:53:33.504Z,0
2017-02-28T02:54:55.191Z,0
2017-02-28T02:56:13.586Z,0
2017-02-28T02:57:34.321Z,0
2017-02-28T02:58:54.655Z,0
2017-02-28T03:00:15.520Z,0
2017-02-28T03:01:36.271Z,0
2017-02-28T03:02:56.287Z,0
2017-02-28T03:04:18.887Z,0
2017-02-28T03:05:40.057Z,0
2017-02-28T03:06:57.215Z,0
2017-02-28T03:08:20.240Z,0
2017-02-28T03:09:38.200Z,0
2017-02-28T03:10:58.349Z,0
2017-02-28T03:12:14.837Z,0
2017-02-28T03:13:33.016Z,0
2017-02-28T03:14:55.059Z,0
2017-02-28T03:16:14.374Z,0
2017-02-28T03:17:35.740Z,0
2017-02-28T03:18:54.839Z,0
2017-02-28T03:20:17.992Z,0
2017-02-28T03:21:39.358Z,0
2017-02-28T03:22:58.464Z,0
2017-02-28T03:24:19.783Z,0
2017-02-28T03:25:39.893Z,0
2017-02-28T03:27:01.913Z,0
2017-02-28T03:28:23.808Z,0
2017-02-28T03:29:46.731Z,0
2017-02-28T03:31:07.785Z,0
2017-02-28T03:32:29.639Z,0
2017-02-28T03:33:49.982Z,0
2017-02-28T03:35:11.838Z,0
2017-02-28T03:36:30.392Z,0
2017-02-28T03:37:48.228Z,0
2017-02-28T03:39:09.109Z,0
2017-02-28T03:40:28.283Z,0
2017-02-28T03:41:45.399Z,0
2017-02-28T03:43:03.138Z,0
2017-02-28T03:44:22.684Z,0
2017-02-28T03:45:42.116Z,0
2017-02-28T03:47:02.712Z,0
2017-02-28T03:48:21.542Z,0
2017-02-28T03:49:43.680Z,0
2017-02-28T03:51:00.479Z,0
2017-02-28T03:52:20.017Z,0
2017-02-28T03:53:41.670Z,0
2017-02-28T03:55:02.661Z,0
2017-02-28T03:56:22.978Z,0
2017-02-28T03:57:43.687Z,0
2017-02-28T03:59:04.593Z,0
2017-02-28T04:00:24.715Z,0
2017-02-28T04:01:46.063Z,0
2017-02-28T04:03:07.959Z,0
2017-02-28T04:04:31.107Z,0
2017-02-28T04:05:51.628Z,0
2017-02-28T04:07:11.234Z,0
2017-02-28T04:08:34.101Z,0
2017-02-28T04:09:49.196Z,0
2017-02-28T04:11:07.942Z,0
2017-02-28T04:12:28.858Z,0
2017-02-28T04:13:52.326Z,0
2017-02-28T04:15:12.563Z,0
2017-02-28T04:16:35.492Z,0
2017-02-28T04:17:56.798Z,0
2017-02-28T04:19:20.002Z,0
2017-02-28T04:20:42.367Z,0
2017-02-28T04:22:01.420Z,0
2017-02-28T04:23:21.196Z,0
2017-02-28T04:24:36.545Z,0
2017-02-28T04:25:56.652Z,0
2017-02-28T04:27:19.872Z,0
2017-02-28T04:28:37.504Z,0
2017-02-28T04:30:00.213Z,0
2017-02-28T04:31:21.647Z,0
2017-02-28T04:32:45.888Z,0
2017-02-28T04:34:07.567Z,0
2017-02-28T04:35:30.671Z,0
2017-02-28T04:36:52.907Z,0
2017-02-28T04:38:12.487Z,0
2017-02-28T04:39:32.562Z,0
2017-02-28T04:40:51.324Z,0
2017-02-28T04:42:12.443Z,0
2017-02-28T04:43:33.577Z,0
2017-02-28T04:44:55.779Z,0
2017-02-28T04:46:17.783Z,0
2017-02-28T04:47:37.105Z,0
2017-02-28T04:48:59.355Z,0
2017-02-28T04:50:18.283Z,0
2017-02-28T04:51:42.662Z,0
2017-02-28T04:53:05.042Z,0
2017-02-28T04:54:25.813Z,0
2017-02-28T04:55:49.550Z,0
2017-02-28T04:57:09.771Z,0
2017-02-28T04:58:30.609Z,0
2017-02-28T04:59:54.534Z,0
2017-02-28T05:01:18.080Z,0
2017-02-28T05:02:38.662Z,0
2017-02-28T05:04:02.554Z,0
2017-02-28T05:05:24.390Z,0
2017-02-28T05:06:48.827Z,0
2017-02-28T05:08:11.040Z,0
2017-02-28T05:09:33.659Z,0
2017-02-28T05:10:57.211Z,0
2017-02-28T05:12:20.703Z,0
2017-02-28T05:13:41.341Z,0
2017-02-28T05:15:04.302Z,0
2017-02-28T05:16:26.657Z,0
2017-02-28T05:17:49.153Z,0
2017-02-28T05:19:09.608Z,0
2017-02-28T05:20:27.852Z,0
2017-02-28T05:21:54.693Z,0
2017-02-28T05:23:17.977Z,0
2017-02-28T05:24:38.358Z,0
2017-02-28T05:25:59.910Z,0
2017-02-28T05:27:23.488Z,0
2017-02-28T05:28:45.101Z,0
2017-02-28T05:30:08.054Z,0
2017-02-28T05:31:29.513Z,0
2017-02-28T05:32:54.052Z,0
2017-02-28T05:34:16.181Z,0
2017-02-28T05:35:36.531Z,0
2017-02-28T05:36:58.492Z,0
2017-02-28T05:38:19.273Z,0
2017-02-28T05:39:41.281Z,0
2017-02-28T05:41:06.067Z,0
2017-02-28T05:42:27.356Z,0
2017-02-28T05:43:52.984Z,0
2017-02-28T05:45:12.420Z,0
2017-02-28T05:46:34.291Z,4
2017-02-28T05:47:52.934Z,4
2017-02-28T05:49:15.798Z,0
2017-02-28T05:50:36.323Z,4
2017-02-28T05:51:52.666Z,8
2017-02-28T05:53:09.581Z,8
2017-02-28T05:54:29.409Z,8
2017-02-28T05:55:50.601Z,12
2017-02-28T05:57:11.122Z,12
2017-02-28T05:58:28.306Z,16
2017-02-28T05:59:48.505Z,16
2017-02-28T06:01:06.157Z,24
2017-02-28T06:02:26.763Z,32
2017-02-28T06:03:46.441Z,32
2017-02-28T06:05:04.811Z,40
2017-02-28T06:06:23.748Z,40
2017-02-28T06:07:44.598Z,48
2017-02-28T06:09:01.703Z,56
2017-02-28T06:10:17.958Z,52
2017-02-28T06:11:37.949Z,56
2017-02-28T06:12:57.826Z,48
2017-02-28T06:14:15.187Z,60
2017-02-28T06:15:38.575Z,88
2017-02-28T06:17:02.611Z,112
2017-02-28T06:18:25.407Z,76
2017-02-28T06:19:45.397Z,64
2017-02-28T06:21:01.613Z,60
2017-02-28T06:22:17.910Z,44
2017-02-28T06:23:37.947Z,44
2017-02-28T06:24:55.344Z,64
2017-02-28T06:26:12.376Z,120
2017-02-28T06:27:30.567Z,160
2017-02-28T06:28:45.302Z,184
2017-02-28T06:30:00.702Z,252
2017-02-28T06:31:18.163Z,308
2017-02-28T06:32:35.137Z,340
2017-02-28T06:33:53.396Z,356
2017-02-28T06:35:10.580Z,396
2017-02-28T06:36:29.225Z,388
2017-02-28T06:37:45.589Z,392
2017-02-28T06:39:03.075Z,376
2017-02-28T06:40:20.112Z,388
2017-02-28T06:41:37.072Z,432
2017-02-28T06:42:54.730Z,500
2017-02-28T06:44:13.356Z,540
2017-02-28T06:45:30.552Z,580
2017-02-28T06:46:50.960Z,616
2017-02-28T06:48:09.354Z,656
2017-02-28T06:49:27.387Z,692
2017-02-28T06:50:44.895Z,728
2017-02-28T06:52:01.589Z,760
2017-02-28T06:53:18.411Z,800
2017-02-28T06:54:36.046Z,840
2017-02-28T06:55:54.514Z,872
2017-02-28T06:57:15.751Z,904
2017-02-28T06:58:30.293Z,924
2017-02-28T06:59:49.168Z,924
2017-02-28T07:01:04.209Z,932
2017-02-28T07:02:21.275Z,960
2017-02-28T07:03:39.199Z,964
2017-02-28T07:04:58.043Z,1008
2017-02-28T07:06:15.877Z,1028
2017-02-28T07:07:32.829Z,1044
2017-02-28T07:08:50.447Z,1060
2017-02-28T07:10:08.183Z,1076
2017-02-28T07:11:24.917Z,1092
2017-02-28T07:12:43.897Z,1088
2017-02-28T07:14:03.133Z,1116
2017-02-28T07:15:20.255Z,1128
2017-02-28T07:16:37.659Z,1140
2017-02-28T07:17:55.952Z,1144
2017-02-28T07:19:12.927Z,1076
2017-02-28T07:20:36.131Z,1160
2017-02-28T07:21:55.436Z,1184
2017-02-28T07:23:13.496Z,1204
2017-02-28T07:24:31.202Z,1208
2017-02-28T07:25:48.489Z,1208
2017-02-28T07:27:07.406Z,1228
2017-02-28T07:28:24.490Z,1276
2017-02-28T07:29:40.760Z,1320
2017-02-28T07:30:59.079Z,1428
2017-02-28T07:32:18.860Z,2140
2017-02-28T07:33:39.121Z,2148
2017-02-28T07:34:58.774Z,1604
2017-02-28T07:36:21.842Z,1436
2017-02-28T07:37:38.994Z,1176
2017-02-28T07:38:58.851Z,1304
2017-02-28T07:40:20.086Z,1996
2017-02-28T07:41:40.982Z,2092
2017-02-28T07:42:57.677Z,1536
2017-02-28T07:44:15.887Z,1340
2017-02-28T07:45:36.387Z,1444
2017-02-28T07:46:57.725Z,1500
2017-02-28T07:48:21.878Z,1972
2017-02-28T07:49:45.242Z,2552
2017-02-28T07:51:04.904Z,2024
2017-02-28T07:52:22.671Z,1580
2017-02-28T07:53:39.951Z,1276
2017-02-28T07:54:56.362Z,1152
2017-02-28T07:56:12.955Z,1124
2017-02-28T07:57:29.465Z,1148
2017-02-28T07:58:46.316Z,1196
2017-02-28T08:00:06.585Z,1632
2017-02-28T08:01:28.338Z,2848
2017-02-28T08:02:48.122Z,2148
2017-02-28T08:04:06.818Z,1600
2017-02-28T08:05:25.781Z,1520
2017-02-28T08:06:44.895Z,1552
2017-02-28T08:08:04.498Z,1600
2017-02-28T08:09:23.073Z,1824
2017-02-28T08:10:40.674Z,2288
2017-02-28T08:11:58.454Z,3224
2017-02-28T08:13:15.225Z,3884
2017-02-28T08:14:32.092Z,3264
2017-02-28T08:15:49.962Z,2608
2017-02-28T08:17:07.553Z,2236
2017-02-28T08:18:25.856Z,2124
2017-02-28T08:19:44.160Z,1872
2017-02-28T08:21:02.507Z,1868
2017-02-28T08:22:21.582Z,1792
2017-02-28T08:23:39.030Z,1792
2017-02-28T08:24:57.021Z,1716
2017-02-28T08:26:15.410Z,1664
2017-02-28T08:27:33.933Z,1712
2017-02-28T08:28:51.979Z,1716
2017-02-28T08:30:10.247Z,1744
2017-02-28T08:31:27.336Z,1744
2017-02-28T08:32:45.635Z,1740
2017-02-28T08:34:05.798Z,1696
2017-02-28T08:35:23.978Z,1688
2017-02-28T08:36:40.930Z,1788
2017-02-28T08:37:57.939Z,1808
2017-02-28T08:39:16.179Z,1872
2017-02-28T08:40:34.140Z,1848
2017-02-28T08:41:52.539Z,1872
2017-02-28T08:43:09.650Z,1896
2017-02-28T08:44:28.673Z,1912
2017-02-28T08:45:45.347Z,1936
2017-02-28T08:47:02.960Z,1968
2017-02-28T08:48:22.384Z,2020
2017-02-28T08:49:40.144Z,2040
2017-02-28T08:50:57.173Z,1736
2017-02-28T08:52:14.910Z,2204
2017-02-28T08:53:33.260Z,2392
2017-02-28T08:54:52.382Z,2136
2017-02-28T08:56:11.451Z,2456
2017-02-28T08:57:33.343Z,2076
2017-02-28T08:58:50.900Z,2156
2017-02-28T09:00:09.312Z,2200
2017-02-28T09:01:28.110Z,2104
2017-02-28T09:02:46.490Z,2012
2017-02-28T09:04:04.338Z,2136
2017-02-28T09:05:22.099Z,1932
2017-02-28T09:06:38.821Z,2248
2017-02-28T09:07:55.821Z,2596
2017-02-28T09:09:13.604Z,3128
2017-02-28T09:10:30.244Z,3792
2017-02-28T09:11:47.488Z,2456
2017-02-28T09:13:04.823Z,2656
2017-02-28T09:14:23.296Z,3344
2017-02-28T09:15:42.100Z,3240
2017-02-28T09:17:01.506Z,3432
2017-02-28T09:18:17.545Z,4048
2017-02-28T09:19:35.716Z,4376
2017-02-28T09:20:53.442Z,4228
2017-02-28T09:22:12.157Z,3844
2017-02-28T09:23:29.467Z,4112
2017-02-28T09:24:46.170Z,4628
2017-02-28T09:26:01.818Z,4804
2017-02-28T09:27:19.785Z,3828
2017-02-28T09:28:37.407Z,3988
2017-02-28T09:29:55.221Z,3868
2017-02-28T09:31:15.053Z,3832
2017-02-28T09:32:36.194Z,3956
2017-02-28T09:34:11.247Z,3924
2017-02-28T09:35:28.183Z,3468
2017-02-28T09:36:47.427Z,4196
2017-02-28T09:38:06.250Z,3572
2017-02-28T09:39:25.261Z,3784
2017-02-28T09:40:44.005Z,3912
2017-02-28T09:42:02.290Z,4296
2017-02-28T09:43:19.814Z,4688
2017-02-28T09:44:37.478Z,3456
2017-02-28T09:45:57.441Z,4484
2017-02-28T09:47:15.284Z,3412
2017-02-28T09:48:33.956Z,4444
2017-02-28T09:49:52.488Z,4380
2017-02-28T09:51:11.548Z,3012
2017-02-28T09:52:27.747Z,3236
2017-02-28T09:53:44.587Z,2976
2017-02-28T09:55:58.946Z,2488
2017-02-28T09:57:16.744Z,2984
2017-02-28T09:58:32.021Z,3164
2017-02-28T09:59:46.371Z,3180
2017-02-28T10:01:01.539Z,2880
2017-02-28T10:02:16.417Z,2588
2017-02-28T10:03:31.481Z,1652
2017-02-28T10:04:46.711Z,1372
2017-02-28T10:06:01.738Z,1500
2017-02-28T10:07:17.047Z,1852
2017-02-28T10:08:31.563Z,4160
2017-02-28T10:09:47.773Z,3560
2017-02-28T10:11:04.196Z,3696
2017-02-28T10:12:21.400Z,4036
2017-02-28T10:13:36.939Z,4516
2017-02-28T10:14:51.758Z,4208
2017-02-28T10:16:07.318Z,4560
2017-02-28T10:17:23.541Z,4800
2017-02-28T10:18:40.593Z,4736
2017-02-28T10:19:55.170Z,4588
2017-02-28T10:21:09.873Z,4656
2017-02-28T10:22:25.220Z,3276
2017-02-28T10:23:39.950Z,2512
2017-02-28T10:24:55.551Z,2500
2017-02-28T10:26:09.737Z,2776
2017-02-28T10:27:23.799Z,2964
2017-02-28T10:28:38.712Z,2864
2017-02-28T10:29:52.997Z,2560
2017-02-28T10:31:08.143Z,2576
2017-02-28T10:32:22.301Z,2796
2017-02-28T10:33:36.880Z,3344
2017-02-28T10:34:52.605Z,3376
2017-02-28T10:36:06.995Z,3184
2017-02-28T10:37:21.732Z,2688
2017-02-28T10:38:36.276Z,2592
2017-02-28T10:39:50.305Z,2624
2017-02-28T10:41:05.127Z,2780
2017-02-28T10:42:19.705Z,3080
2017-02-28T10:43:34.213Z,3556
2017-02-28T10:44:48.252Z,3988
2017-02-28T10:46:02.957Z,4076
2017-02-28T10:47:17.459Z,4160
2017-02-28T10:48:32.601Z,4324
2017-02-28T10:49:46.723Z,4472
2017-02-28T10:51:01.314Z,4768
2017-02-28T10:52:16.393Z,4640
2017-02-28T10:53:30.977Z,4644
2017-02-28T10:54:45.515Z,4256
2017-02-28T10:56:00.076Z,4200
2017-02-28T10:57:14.415Z,4012
2017-02-28T10:58:28.921Z,3992
2017-02-28T10:59:44.852Z,3960
2017-02-28T11:01:02.878Z,3784
2017-02-28T11:02:20.682Z,3928
2017-02-28T11:03:36.565Z,3748
2017-02-28T11:04:51.386Z,4200
2017-02-28T11:06:09.243Z,3724
2017-02-28T11:07:34.050Z,3396
2017-02-28T11:08:52.074Z,3280
2017-02-28T11:10:06.680Z,2648
2017-02-28T11:11:21.099Z,2644
2017-02-28T11:12:36.457Z,2620
2017-02-28T11:13:52.709Z,2508
2017-02-28T11:15:07.324Z,3000
2017-02-28T11:16:22.355Z,3432
2017-02-28T11:17:37.951Z,3592
2017-02-28T11:18:53.007Z,3688
2017-02-28T11:20:07.131Z,3604
2017-02-28T11:21:22.172Z,3192
2017-02-28T11:22:36.287Z,3128
2017-02-28T11:23:51.678Z,3600
2017-02-28T11:25:05.745Z,3536
2017-02-28T11:26:20.279Z,4652
2017-02-28T11:27:35.335Z,4552
2017-02-28T11:28:49.863Z,4372
2017-02-28T11:30:04.349Z,4600
2017-02-28T11:31:18.921Z,3852
2017-02-28T11:32:33.811Z,3628
2017-02-28T11:33:48.810Z,4540
2017-02-28T11:35:05.024Z,4060
2017-02-28T11:36:21.613Z,4252
2017-02-28T11:37:37.025Z,4868
2017-02-28T11:38:51.311Z,4828
2017-02-28T11:40:05.859Z,4692
2017-02-28T11:41:20.493Z,4480
2017-02-28T11:42:36.139Z,4140
2017-02-28T11:43:51.470Z,3140
2017-02-28T11:45:07.574Z,2548
2017-02-28T11:47:04.717Z,3540
2017-02-28T11:48:19.204Z,4400
2017-02-28T11:49:35.336Z,4508
2017-02-28T11:50:51.189Z,4624
2017-02-28T11:52:05.968Z,4356
2017-02-28T11:53:22.123Z,4396
2017-02-28T11:54:36.435Z,4140
2017-02-28T11:55:50.496Z,3752
2017-02-28T11:57:04.581Z,3336
2017-02-28T11:58:19.051Z,3648
2017-02-28T11:59:34.745Z,3916
2017-02-28T12:00:49.160Z,4120
2017-02-28T12:02:04.505Z,4112
2017-02-28T12:03:19.690Z,4144
2017-02-28T12:04:35.015Z,4100
2017-02-28T12:05:50.805Z,4224
2017-02-28T12:07:06.093Z,4364
2017-02-28T12:08:22.444Z,4292
2017-02-28T12:09:37.648Z,4280
2017-02-28T12:10:53.323Z,4200
2017-02-28T12:12:09.505Z,3944
2017-02-28T12:13:24.469Z,3628
2017-02-28T12:14:39.729Z,3432
2017-02-28T12:15:55.220Z,3116
2017-02-28T12:17:10.622Z,2896
2017-02-28T12:18:25.461Z,2728
2017-02-28T12:19:41.111Z,2824
2017-02-28T12:20:56.121Z,2900
2017-02-28T12:22:10.302Z,2372
2017-02-28T12:23:25.000Z,1848
2017-02-28T12:24:40.143Z,2084
2017-02-28T12:25:54.851Z,1908
2017-02-28T12:27:10.608Z,1700
2017-02-28T12:28:25.235Z,2132
2017-02-28T12:29:40.908Z,2716
2017-02-28T12:30:55.418Z,2500
2017-02-28T12:32:11.340Z,2472
2017-02-28T12:33:26.050Z,2596
2017-02-28T12:34:41.464Z,2880
2017-02-28T12:35:55.546Z,2564
2017-02-28T12:37:12.982Z,1976
2017-02-28T12:38:27.575Z,1636
2017-02-28T12:39:42.298Z,1820
2017-02-28T12:40:57.394Z,2112
2017-02-28T12:42:11.955Z,2136
2017-02-28T12:43:27.069Z,1828
2017-02-28T12:44:56.840Z,1604
2017-02-28T12:46:11.508Z,1676
2017-02-28T12:47:26.598Z,1364
2017-02-28T12:48:41.162Z,1268
2017-02-28T12:49:56.875Z,1304
2017-02-28T12:51:11.870Z,1212
2017-02-28T12:52:27.280Z,1284
2017-02-28T12:53:42.149Z,1300
2017-02-28T12:54:58.669Z,1512
2017-02-28T12:56:13.670Z,1620
2017-02-28T12:57:28.562Z,1524
2017-02-28T12:58:44.398Z,1628
2017-02-28T13:00:02.696Z,1732
2017-02-28T13:01:18.269Z,1788
2017-02-28T13:02:33.817Z,1772
2017-02-28T13:03:48.567Z,1764
2017-02-28T13:05:03.134Z,1724
2017-02-28T13:06:17.418Z,1712
2017-02-28T13:07:32.257Z,1652
2017-02-28T13:08:46.840Z,1744
2017-02-28T13:10:01.893Z,1832
2017-02-28T13:11:16.438Z,1592
2017-02-28T13:12:31.569Z,1604
2017-02-28T13:13:46.083Z,1864
2017-02-28T13:15:00.981Z,1792
2017-02-28T13:16:16.010Z,1616
2017-02-28T13:17:30.194Z,1444
2017-02-28T13:18:45.104Z,1264
2017-02-28T13:20:00.011Z,1148
2017-02-28T13:21:15.646Z,1104
2017-02-28T13:22:30.728Z,1068
2017-02-28T13:23:44.998Z,1156
2017-02-28T13:24:59.813Z,1348
2017-02-28T13:26:14.446Z,1388
2017-02-28T13:27:28.600Z,1480
2017-02-28T13:28:43.059Z,1536
2017-02-28T13:29:59.110Z,1456
2017-02-28T13:31:13.280Z,1372
2017-02-28T13:32:28.389Z,1384
2017-02-28T13:33:43.050Z,1504
2017-02-28T13:34:57.313Z,1548
2017-02-28T13:36:11.905Z,1504
2017-02-28T13:37:26.629Z,1288
2017-02-28T13:38:41.437Z,1096
2017-02-28T13:39:57.322Z,1080
2017-02-28T13:41:11.979Z,1248
2017-02-28T13:42:27.114Z,1416
2017-02-28T13:43:42.303Z,1428
2017-02-28T13:44:58.164Z,1784
2017-02-28T13:46:12.907Z,1800
2017-02-28T13:47:27.837Z,1768
2017-02-28T13:48:42.429Z,1648
2017-02-28T13:49:57.275Z,1376
2017-02-28T13:51:11.689Z,1196
2017-02-28T13:52:26.260Z,1128
2017-02-28T13:53:41.411Z,1096
2017-02-28T13:54:56.079Z,1024
2017-02-28T13:56:12.129Z,1012
2017-02-28T13:57:28.105Z,1012
2017-02-28T13:58:42.573Z,1060
2017-02-28T13:59:57.280Z,1120
2017-02-28T14:01:12.602Z,1200
2017-02-28T14:02:27.220Z,1328
2017-02-28T14:03:41.534Z,1380
2017-02-28T14:04:56.998Z,1360
2017-02-28T14:06:11.730Z,1232
2017-02-28T14:07:26.508Z,1200
2017-02-28T14:08:42.038Z,1264
2017-02-28T14:10:10.950Z,1524
2017-02-28T14:11:25.862Z,1516
2017-02-28T14:12:44.272Z,1444
2017-02-28T14:13:59.066Z,1288
2017-02-28T14:15:14.134Z,1120
2017-02-28T14:16:28.912Z,1148
2017-02-28T14:17:43.817Z,1228
2017-02-28T14:18:58.173Z,1356
2017-02-28T14:20:13.155Z,1320
2017-02-28T14:21:27.754Z,1396
2017-02-28T14:22:43.069Z,1620
2017-02-28T14:23:57.859Z,1492
2017-02-28T14:25:13.192Z,1436
2017-02-28T14:26:28.215Z,1628
2017-02-28T14:27:43.934Z,1668
2017-02-28T14:28:59.230Z,1464
2017-02-28T14:30:13.960Z,1304
2017-02-28T14:31:29.162Z,1384
2017-02-28T14:32:43.961Z,1252
2017-02-28T14:33:58.599Z,1300
2017-02-28T14:35:13.539Z,1236
2017-02-28T14:36:28.331Z,1156
2017-02-28T14:37:44.116Z,1048
2017-02-28T14:38:58.848Z,908
2017-02-28T14:40:13.970Z,892
2017-02-28T14:41:28.924Z,808
2017-02-28T14:42:43.367Z,740
2017-02-28T14:43:58.475Z,716
2017-02-28T14:45:13.259Z,668
2017-02-28T14:46:48.771Z,616
2017-02-28T14:48:04.660Z,676
2017-02-28T14:49:19.395Z,576
2017-02-28T14:50:34.945Z,584
2017-02-28T14:51:50.352Z,444
2017-02-28T14:53:06.315Z,420
2017-02-28T14:54:21.657Z,356
2017-02-28T14:55:37.324Z,320
2017-02-28T14:56:51.378Z,332
2017-02-28T14:58:06.116Z,396
2017-02-28T14:59:20.776Z,388
2017-02-28T15:00:36.071Z,376
2017-02-28T15:01:50.211Z,572
2017-02-28T15:03:05.736Z,620
2017-02-28T15:04:20.492Z,692
2017-02-28T15:05:36.010Z,416
2017-02-28T15:06:50.869Z,448
2017-02-28T15:08:05.701Z,404
2017-02-28T15:09:20.861Z,568
2017-02-28T15:10:35.127Z,688
2017-02-28T15:11:49.371Z,836
2017-02-28T15:13:04.520Z,932
2017-02-28T15:14:18.725Z,988
2017-02-28T15:15:33.505Z,720
2017-02-28T15:16:48.261Z,1000
2017-02-28T15:18:02.887Z,848
2017-02-28T15:19:18.185Z,712
2017-02-28T15:20:33.149Z,620
2017-02-28T15:21:47.892Z,768
2017-02-28T15:23:02.028Z,788
2017-02-28T15:24:17.156Z,712
2017-02-28T15:25:32.168Z,764
2017-02-28T15:26:46.945Z,1148
2017-02-28T15:28:02.644Z,780
2017-02-28T15:29:17.786Z,588
2017-02-28T15:30:35.893Z,824
2017-02-28T15:31:50.427Z,860
2017-02-28T15:33:04.686Z,724
2017-02-28T15:34:19.287Z,1104
2017-02-28T15:35:34.721Z,1664
2017-02-28T15:36:49.555Z,1968
2017-02-28T15:38:04.990Z,1880
2017-02-28T15:39:19.715Z,1724
2017-02-28T15:40:35.395Z,2084
2017-02-28T15:41:50.472Z,2224
2017-02-28T15:43:05.169Z,2000
2017-02-28T15:44:19.964Z,1692
2017-02-28T15:45:34.174Z,1636
2017-02-28T15:46:50.305Z,1304
2017-02-28T15:48:05.143Z,1172
2017-02-28T15:49:19.514Z,1124
2017-02-28T15:50:34.073Z,1128
2017-02-28T15:51:51.331Z,924
2017-02-28T15:53:05.457Z,1172
2017-02-28T15:54:19.799Z,972
2017-02-28T15:55:34.410Z,908
2017-02-28T15:56:52.485Z,756
2017-02-28T15:58:07.608Z,756
2017-02-28T15:59:23.299Z,700
2017-02-28T16:00:38.296Z,852
2017-02-28T16:01:52.675Z,752
2017-02-28T16:03:08.240Z,664
2017-02-28T16:04:23.396Z,436
2017-02-28T16:05:38.151Z,328
2017-02-28T16:06:53.201Z,336
2017-02-28T16:08:08.437Z,424
2017-02-28T16:09:25.961Z,520
2017-02-28T16:10:43.306Z,512
2017-02-28T16:12:00.815Z,396
2017-02-28T16:13:16.386Z,352
2017-02-28T16:14:30.802Z,428
2017-02-28T16:15:45.476Z,384
2017-02-28T16:16:59.869Z,384
2017-02-28T16:18:14.606Z,504
2017-02-28T16:19:29.783Z,408
2017-02-28T16:20:44.920Z,404
2017-02-28T16:21:59.613Z,308
2017-02-28T16:23:13.920Z,300
2017-02-28T16:24:30.152Z,332
2017-02-28T16:25:46.871Z,292
2017-02-28T16:27:01.541Z,284
2017-02-28T16:28:19.518Z,260
2017-02-28T16:29:35.830Z,244
2017-02-28T16:30:51.776Z,260
2017-02-28T16:32:06.515Z,192
2017-02-28T16:33:21.474Z,160
2017-02-28T16:34:36.446Z,136
2017-02-28T16:35:51.379Z,116
2017-02-28T16:37:07.469Z,108
2017-02-28T16:38:23.218Z,108
2017-02-28T16:39:38.305Z,124
2017-02-28T16:40:53.128Z,136
2017-02-28T16:42:08.716Z,128
2017-02-28T16:43:23.166Z,96
2017-02-28T16:44:38.468Z,112
2017-02-28T16:45:54.629Z,92
2017-02-28T16:47:08.965Z,108
2017-02-28T16:48:26.092Z,64
2017-02-28T16:49:41.220Z,44
2017-02-28T16:50:55.657Z,48
2017-02-28T16:52:11.575Z,52
2017-02-28T16:53:26.315Z,56
2017-02-28T16:54:42.799Z,44
2017-02-28T16:55:57.138Z,60
2017-02-28T16:57:11.544Z,80
2017-02-28T16:58:26.737Z,84
2017-02-28T16:59:42.646Z,72
2017-02-28T17:00:57.324Z,40
2017-02-28T17:02:12.009Z,20
2017-02-28T17:03:26.307Z,12
2017-02-28T17:04:41.878Z,8
2017-02-28T17:05:56.303Z,16
2017-02-28T17:07:10.866Z,24
2017-02-28T17:08:25.393Z,16
2017-02-28T17:09:40.042Z,16
2017-02-28T17:10:55.184Z,16
2017-02-28T17:12:09.293Z,20
2017-02-28T17:13:23.617Z,20
2017-02-28T17:14:38.923Z,20
2017-02-28T17:15:54.159Z,16
2017-02-28T17:17:09.363Z,16
2017-02-28T17:18:24.195Z,12
2017-02-28T17:19:39.126Z,8
2017-02-28T17:20:53.844Z,8
2017-02-28T17:22:08.996Z,8
2017-02-28T17:23:23.888Z,4
2017-02-28T17:24:39.238Z,4
2017-02-28T17:25:54.188Z,0
2017-02-28T17:27:08.862Z,4
2017-02-28T17:28:23.080Z,0
2017-02-28T17:29:37.699Z,0
2017-02-28T17:30:52.483Z,0
2017-02-28T17:32:07.148Z,0
2017-02-28T17:33:22.257Z,0
2017-02-28T17:34:38.110Z,0
2017-02-28T17:35:53.779Z,0
2017-02-28T17:37:08.808Z,0
2017-02-28T17:38:24.767Z,0
2017-02-28T17:39:39.736Z,0
2017-02-28T17:40:55.650Z,0
2017-02-28T17:42:11.075Z,0
2017-02-28T17:43:25.837Z,0
2017-02-28T17:44:40.229Z,0
2017-02-28T17:45:54.828Z,0
2017-02-28T17:47:10.134Z,0
2017-02-28T17:48:24.989Z,0
2017-02-28T17:49:39.661Z,0
2017-02-28T17:50:53.815Z,0
2017-02-28T17:52:09.985Z,0
2017-02-28T17:53:26.445Z,0
2017-02-28T17:54:41.397Z,0
2017-02-28T17:55:55.878Z,0
2017-02-28T17:57:10.967Z,0
2017-02-28T17:58:26.104Z,0
2017-02-28T17:59:41.247Z,0
2017-02-28T18:00:55.571Z,0
2017-02-28T18:02:10.943Z,0
2017-02-28T18:03:25.466Z,0